This is the latest recevied weather packets stored in our database for station/object WB3EGK. If no packets are shown the sender has not sent any weather packets the latest 10 day(s).
| Time | Temp. | Humidity | Pressure | Rain* | Wind** | Luminosity | Snow |
|---|---|---|---|---|---|---|---|
| 1778156464 | 6.11° C | 1% | 1010.5 hPa | 0 mm | - | 163 W/m² | - |
| 1778156160 | 6.11° C | 1% | 1010.6 hPa | 0 mm | - | 157 W/m² | - |
| 1778155856 | 5.56° C | 1% | 1010.6 hPa | 0 mm | - | 148 W/m² | - |
| 1778155552 | 5.56° C | 1% | 1010.7 hPa | 0 mm | - | 127 W/m² | - |
| 1778155250 | 5.56° C | 1% | 1010.5 hPa | 0 mm | - | 129 W/m² | - |
| 1778154946 | 5.56° C | 1% | 1010.5 hPa | 0 mm | - | 119 W/m² | - |
| 1778154642 | 5° C | 1% | 1010.5 hPa | 0 mm | - | 124 W/m² | - |
| 1778154338 | 5° C | 1% | 1010.6 hPa | 0 mm | - | 112 W/m² | - |
| 1778154035 | 5° C | 1% | 1010.6 hPa | 0 mm | - | 100 W/m² | - |
| 1778153732 | 4.44° C | 1% | 1010.5 hPa | 0 mm | - | 107 W/m² | - |
| 1778153430 | 5° C | 1% | 1010.4 hPa | 0 mm | - | 79 W/m² | - |
| 1778153127 | 5° C | 1% | 1010.5 hPa | 0 mm | - | 79 W/m² | - |
| 1778152824 | 4.44° C | 1% | 1010.4 hPa | 0 mm | - | 96 W/m² | - |
| 1778152521 | 4.44° C | 1% | 1010.3 hPa | 0 mm | - | 73 W/m² | - |
| 1778152217 | 4.44° C | 1% | 1010.5 hPa | 0 mm | - | 65 W/m² | - |
| 1778151914 | 3.89° C | 1% | 1010.2 hPa | 0 mm | - | 70 W/m² | - |
| 1778151610 | 3.89° C | 1% | 1010.2 hPa | 0 mm | - | 44 W/m² | - |
| 1778151307 | 3.33° C | 1% | 1010.2 hPa | 0 mm | - | 35 W/m² | - |
| 1778151004 | 2.78° C | 1% | 1010.2 hPa | 0 mm | - | 29 W/m² | - |
| 1778150701 | 2.78° C | 1% | 1010.2 hPa | 0 mm | - | 26 W/m² | - |
| 1778150396 | 2.22° C | 1% | 1010.3 hPa | 0 mm | - | 24 W/m² | - |
| 1778150093 | 2.22° C | 1% | 1010.2 hPa | 0 mm | - | 19 W/m² | - |
| 1778149790 | 2.22° C | 1% | 1009.8 hPa | 0 mm | - | 14 W/m² | - |
| 1778149487 | 2.22° C | 1% | 1010 hPa | 0 mm | - | 9 W/m² | - |
| 1778149183 | 2.22° C | 1% | 1009.9 hPa | 0 mm | - | 7 W/m² | - |
* Rain latest hour (hover to see other rain measurements)
** Current wind speed in m/s (hover to see current wind gust speed)